createdAt,value
2022-08-22T00:01:33.133Z,99655.79
2022-08-22T00:02:47.466Z,99613.17
2022-08-22T00:02:58.277Z,99637.34
2022-08-22T00:02:59.073Z,99639.09
2022-08-22T00:02:59.391Z,99650.58
2022-08-22T00:03:15.359Z,99637.50
2022-08-22T00:04:14.629Z,99652.08
2022-08-22T00:06:56.665Z,99650.04
2022-08-22T00:09:41.542Z,99653.34
2022-08-22T00:12:22.876Z,99656.73
2022-08-22T00:15:05.069Z,99658.86
2022-08-22T00:17:48.415Z,99659.47
2022-08-22T00:20:26.109Z,99661.02
2022-08-22T00:23:11.710Z,99661.86
2022-08-22T00:25:51.572Z,99666.47
2022-08-22T00:28:26.767Z,99665.74
2022-08-22T00:31:03.589Z,99668.90
2022-08-22T00:33:38.106Z,99670.92
2022-08-22T00:36:20.546Z,99669.21
2022-08-22T00:38:59.959Z,99667.55
2022-08-22T00:41:50.955Z,99665.29
2022-08-22T00:44:56.040Z,99665.92
2022-08-22T00:47:52.947Z,99662.39
2022-08-22T00:50:55.722Z,99659.30
2022-08-22T00:53:44.503Z,99661.55
2022-08-22T00:56:37.732Z,99664.77
2022-08-22T00:59:35.863Z,99668.64
2022-08-22T01:02:25.479Z,99669.84
2022-08-22T01:05:12.136Z,99666.00
2022-08-22T01:08:13.531Z,99672.67
2022-08-22T01:10:59.412Z,99672.33
2022-08-22T01:14:06.446Z,99671.77
2022-08-22T01:17:00.813Z,99671.98
2022-08-22T01:20:10.668Z,99673.28
2022-08-22T01:23:19.393Z,99671.26
2022-08-22T01:26:38.886Z,99674.02
2022-08-22T01:29:39.321Z,99674.15
2022-08-22T01:32:46.083Z,99681.82
2022-08-22T01:35:38.249Z,99682.27
2022-08-22T01:38:27.158Z,99679.98
2022-08-22T01:41:38.786Z,99677.05
2022-08-22T01:44:39.366Z,99680.29
2022-08-22T01:47:15.912Z,99684.29
2022-08-22T01:49:55.392Z,99683.44
2022-08-22T01:52:45.813Z,99684.84
2022-08-22T01:55:33.644Z,99681.17
2022-08-22T01:58:21.280Z,99675.35
2022-08-22T02:01:08.438Z,99680.00
2022-08-22T02:03:53.578Z,99674.15
2022-08-22T02:06:34.039Z,99678.65
2022-08-22T02:09:12.078Z,99675.41
2022-08-22T02:11:49.753Z,99674.05
2022-08-22T02:14:37.733Z,99679.13
2022-08-22T02:17:21.387Z,99681.46
2022-08-22T02:20:00.153Z,99683.81
2022-08-22T02:22:44.645Z,99685.27
2022-08-22T02:25:22.762Z,99682.95
2022-08-22T02:28:00.070Z,99684.84
2022-08-22T02:30:48.991Z,99683.17
2022-08-22T02:33:34.100Z,99681.71
2022-08-22T02:36:16.737Z,99679.27
2022-08-22T02:39:00.489Z,99680.23
2022-08-22T02:41:44.971Z,99681.02
2022-08-22T02:44:22.400Z,99683.41
2022-08-22T02:47:02.764Z,99682.90
2022-08-22T02:49:47.170Z,99682.35
2022-08-22T02:52:24.465Z,99684.55
2022-08-22T02:55:03.656Z,99688.23
2022-08-22T02:57:41.778Z,99691.27
2022-08-22T03:00:33.050Z,99692.14
2022-08-22T03:03:17.046Z,99693.31
2022-08-22T03:06:02.114Z,99695.39
2022-08-22T03:08:38.009Z,99692.27
2022-08-22T03:11:22.932Z,99695.80
2022-08-22T03:14:05.008Z,99695.55
2022-08-22T03:16:45.958Z,99697.61
2022-08-22T03:19:26.317Z,99698.27
2022-08-22T03:22:02.393Z,99700.41
2022-08-22T03:24:40.427Z,99698.57
2022-08-22T03:27:32.278Z,99696.23
2022-08-22T03:30:11.901Z,99698.70
2022-08-22T03:32:59.737Z,99703.73
2022-08-22T03:35:56.053Z,99705.50
2022-08-22T03:38:44.682Z,99704.88
2022-08-22T03:41:40.307Z,99701.03
2022-08-22T03:44:49.099Z,99704.52
2022-08-22T03:47:49.708Z,99710.11
2022-08-22T03:50:58.718Z,99708.39
2022-08-22T03:53:51.695Z,99710.68
2022-08-22T03:57:00.265Z,99712.36
2022-08-22T04:00:00.615Z,99711.83
2022-08-22T04:03:00.494Z,99710.52
2022-08-22T04:05:55.676Z,99715.70
2022-08-22T04:08:43.981Z,99717.20
2022-08-22T04:11:41.517Z,99723.14
2022-08-22T04:14:34.269Z,99726.58
2022-08-22T04:17:45.504Z,99726.73
2022-08-22T04:20:52.614Z,99728.14
2022-08-22T04:23:50.394Z,99728.64
2022-08-22T04:26:30.607Z,99730.60
2022-08-22T04:29:09.208Z,99729.65
2022-08-22T04:31:48.752Z,99729.91
2022-08-22T04:34:28.194Z,99735.98
2022-08-22T04:37:04.975Z,99733.95
2022-08-22T04:39:46.825Z,99735.29
2022-08-22T04:42:33.056Z,99734.86
2022-08-22T04:45:11.178Z,99738.46
2022-08-22T04:47:47.150Z,99738.61
2022-08-22T04:50:34.005Z,99737.70
2022-08-22T04:53:23.563Z,99743.70
2022-08-22T04:56:07.664Z,99742.20
2022-08-22T04:58:56.770Z,99748.83
2022-08-22T05:01:46.870Z,99747.05
2022-08-22T05:04:24.173Z,99740.88
2022-08-22T05:06:59.976Z,99737.92
2022-08-22T05:09:37.564Z,99742.50
2022-08-22T05:12:14.963Z,99738.83
2022-08-22T05:14:50.178Z,99734.00
2022-08-22T05:17:30.311Z,99740.27
2022-08-22T05:20:08.048Z,99740.66
2022-08-22T05:22:46.357Z,99741.02
2022-08-22T05:25:25.154Z,99739.52
2022-08-22T05:28:08.516Z,99735.17
2022-08-22T05:30:41.589Z,99740.45
2022-08-22T05:33:21.116Z,99742.11
2022-08-22T05:35:58.570Z,99745.55
2022-08-22T05:38:35.599Z,99744.02
2022-08-22T05:41:11.993Z,99743.93
2022-08-22T05:43:46.480Z,99745.35
2022-08-22T05:46:26.864Z,99743.41
2022-08-22T05:49:02.632Z,99740.78
2022-08-22T05:51:47.108Z,99740.59
2022-08-22T05:54:34.365Z,99744.82
2022-08-22T05:57:18.079Z,99747.77
2022-08-22T05:59:55.583Z,99746.17
2022-08-22T06:02:40.396Z,99744.29
2022-08-22T06:05:13.748Z,99739.07
2022-08-22T06:07:50.167Z,99736.02
2022-08-22T06:10:27.790Z,99741.17
2022-08-22T06:13:11.695Z,99741.33
2022-08-22T06:15:49.794Z,99743.30
2022-08-22T06:18:26.179Z,99743.84
2022-08-22T06:21:03.938Z,99742.95
2022-08-22T06:23:41.741Z,99738.16
2022-08-22T06:26:20.909Z,99738.98
2022-08-22T06:28:59.049Z,99743.17
2022-08-22T06:31:39.210Z,99739.85
2022-08-22T06:34:15.367Z,99744.21
2022-08-22T06:36:50.708Z,99739.80
2022-08-22T06:39:23.323Z,99739.61
2022-08-22T06:42:01.189Z,99745.70
2022-08-22T06:44:37.436Z,99751.46
2022-08-22T06:47:16.622Z,99752.45
2022-08-22T06:49:49.561Z,99757.02
2022-08-22T06:52:24.563Z,99767.95
2022-08-22T06:55:03.756Z,99759.06
2022-08-22T06:57:38.768Z,99762.06
2022-08-22T07:00:16.465Z,99761.41
2022-08-22T07:02:52.785Z,99760.32
2022-08-22T07:05:28.290Z,99757.23
2022-08-22T07:08:06.305Z,99755.60
2022-08-22T07:10:41.725Z,99754.35
2022-08-22T07:13:17.986Z,99756.20
2022-08-22T07:15:56.324Z,99756.44
2022-08-22T07:18:31.958Z,99761.13
2022-08-22T07:21:08.459Z,99757.86
2022-08-22T07:23:48.212Z,99766.63
2022-08-22T07:26:34.955Z,99768.24
2022-08-22T07:29:18.279Z,99767.75
2022-08-22T07:31:56.534Z,99765.84
2022-08-22T07:34:44.784Z,99767.75
2022-08-22T07:37:28.855Z,99768.98
2022-08-22T07:40:09.556Z,99768.64
2022-08-22T07:42:50.233Z,99771.11
2022-08-22T07:45:34.217Z,99773.70
2022-08-22T07:48:26.245Z,99778.02
2022-08-22T07:51:06.218Z,99779.10
2022-08-22T07:53:43.417Z,99781.00
2022-08-22T07:56:21.999Z,99782.63
2022-08-22T07:59:12.941Z,99784.96
2022-08-22T08:01:50.370Z,99784.45
2022-08-22T08:04:26.610Z,99784.14
2022-08-22T08:07:01.770Z,99783.20
2022-08-22T08:09:38.667Z,99779.07
2022-08-22T08:12:14.129Z,99777.33
2022-08-22T08:14:51.120Z,99778.17
2022-08-22T08:17:31.879Z,99776.48
2022-08-22T08:20:09.881Z,99777.77
2022-08-22T08:22:45.061Z,99781.46
2022-08-22T08:25:21.092Z,99776.23
2022-08-22T08:28:19.888Z,99782.36
2022-08-22T08:31:00.847Z,99774.16
2022-08-22T08:33:36.279Z,99775.17
2022-08-22T08:36:16.631Z,99776.52
2022-08-22T08:38:54.642Z,99780.54
2022-08-22T08:41:43.927Z,99783.76
2022-08-22T08:44:29.392Z,99783.62
2022-08-22T08:47:22.928Z,99776.18
2022-08-22T08:50:18.744Z,99778.77
2022-08-22T08:53:26.640Z,99782.08
2022-08-22T08:56:05.256Z,99781.45
2022-08-22T08:58:48.813Z,99781.90
2022-08-22T09:02:00.307Z,99780.87
2022-08-22T09:05:03.207Z,99779.02
2022-08-22T09:07:57.200Z,99784.42
2022-08-22T09:10:57.298Z,99785.91
2022-08-22T09:13:48.981Z,99778.52
2022-08-22T09:16:51.794Z,99776.83
2022-08-22T09:19:47.735Z,99773.73
2022-08-22T09:22:59.110Z,99776.30
2022-08-22T09:25:38.699Z,99771.46
2022-08-22T09:28:19.933Z,99776.61
2022-08-22T09:31:16.615Z,99782.20
2022-08-22T09:34:00.190Z,99778.44
2022-08-22T09:36:50.135Z,99783.13
2022-08-22T09:39:34.411Z,99778.52
2022-08-22T09:42:12.760Z,99777.30
2022-08-22T09:44:59.410Z,99781.35
2022-08-22T09:47:39.307Z,99777.96
2022-08-22T09:50:19.278Z,99778.58
2022-08-22T09:53:05.383Z,99775.02
2022-08-22T09:55:53.740Z,99774.89
2022-08-22T09:58:41.565Z,99773.65
2022-08-22T10:01:25.952Z,99770.96
2022-08-22T10:04:40.301Z,99771.60
2022-08-22T10:07:38.392Z,99772.92
2022-08-22T10:10:24.599Z,99774.86
2022-08-22T10:13:10.521Z,99776.35
2022-08-22T10:15:50.211Z,99778.84
2022-08-22T10:18:34.623Z,99779.29
2022-08-22T10:21:13.495Z,99776.35
2022-08-22T10:23:54.134Z,99776.86
2022-08-22T10:26:38.641Z,99780.85
2022-08-22T10:29:41.221Z,99784.06
2022-08-22T10:32:27.469Z,99788.60
2022-08-22T10:35:06.335Z,99787.11
2022-08-22T10:37:50.567Z,99788.27
2022-08-22T10:40:28.921Z,99785.48
2022-08-22T10:43:09.281Z,99783.81
2022-08-22T10:45:46.373Z,99784.98
2022-08-22T10:48:42.530Z,99785.15
2022-08-22T10:51:24.784Z,99787.39
2022-08-22T10:54:20.151Z,99784.04
2022-08-22T10:57:03.729Z,99785.42
2022-08-22T10:59:50.723Z,99788.20
2022-08-22T11:02:38.731Z,99789.83
2022-08-22T11:05:36.288Z,99786.80
2022-08-22T11:08:21.899Z,99785.50
2022-08-22T11:11:06.979Z,99786.83
2022-08-22T11:13:47.070Z,99783.73
2022-08-22T11:16:36.603Z,99782.66
2022-08-22T11:19:27.562Z,99785.81
2022-08-22T11:22:16.198Z,99785.28
2022-08-22T11:25:12.909Z,99789.89
2022-08-22T11:28:00.261Z,99792.91
2022-08-22T11:30:43.923Z,99795.38
2022-08-22T11:33:39.068Z,99792.02
2022-08-22T11:36:37.085Z,99792.83
2022-08-22T11:39:24.468Z,99791.77
2022-08-22T11:42:06.566Z,99789.49
2022-08-22T11:44:50.222Z,99787.53
2022-08-22T11:47:26.813Z,99787.67
2022-08-22T11:50:13.388Z,99788.00
2022-08-22T11:53:17.231Z,99790.38
2022-08-22T11:56:00.052Z,99789.27
2022-08-22T11:58:50.211Z,99790.30
2022-08-22T12:01:34.350Z,99793.41
2022-08-22T12:04:18.724Z,99793.02
2022-08-22T12:06:59.427Z,99792.29
2022-08-22T12:09:44.506Z,99793.40
2022-08-22T12:12:42.201Z,99792.27
2022-08-22T12:15:24.421Z,99792.46
2022-08-22T12:18:25.406Z,99789.48
2022-08-22T12:21:24.758Z,99787.92
2022-08-22T12:24:20.759Z,99789.71
2022-08-22T12:27:09.161Z,99790.73
2022-08-22T12:29:46.135Z,99789.99
2022-08-22T12:32:50.312Z,99790.31
2022-08-22T12:35:40.319Z,99788.05
2022-08-22T12:38:30.701Z,99787.77
2022-08-22T12:41:38.552Z,99785.41
2022-08-22T12:44:33.795Z,99782.15
2022-08-22T12:47:21.915Z,99781.45
2022-08-22T12:50:16.578Z,99778.55
2022-08-22T12:53:18.238Z,99782.88
2022-08-22T12:56:04.054Z,99784.41
2022-08-22T12:58:52.344Z,99782.57
2022-08-22T13:01:34.120Z,99781.73
2022-08-22T13:04:13.319Z,99779.40
2022-08-22T13:07:22.875Z,99780.67
2022-08-22T13:10:00.898Z,99780.80
2022-08-22T13:12:44.037Z,99783.02
2022-08-22T13:15:29.378Z,99780.33
2022-08-22T13:18:19.183Z,99782.33
2022-08-22T13:20:59.503Z,99777.95
2022-08-22T13:23:39.885Z,99779.43
2022-08-22T13:26:31.628Z,99780.39
2022-08-22T13:29:25.824Z,99783.02
2022-08-22T13:32:01.926Z,99782.76
2022-08-22T13:34:45.811Z,99784.30
2022-08-22T13:37:24.606Z,99782.05
2022-08-22T13:40:03.218Z,99779.58
2022-08-22T13:42:47.804Z,99775.14
2022-08-22T13:45:26.605Z,99772.96
2022-08-22T13:48:03.695Z,99767.39
2022-08-22T13:50:53.506Z,99766.30
2022-08-22T13:53:35.655Z,99765.34
2022-08-22T13:56:15.992Z,99767.71
2022-08-22T13:58:52.536Z,99760.87
2022-08-22T14:01:39.106Z,99757.48
2022-08-22T14:04:35.590Z,99760.02
2022-08-22T14:07:31.703Z,99760.51
2022-08-22T14:10:14.871Z,99757.73
2022-08-22T14:13:22.720Z,99757.12
2022-08-22T14:16:02.621Z,99753.57
2022-08-22T14:18:45.506Z,99748.23
2022-08-22T14:21:40.618Z,99748.87
2022-08-22T14:24:28.456Z,99749.93
2022-08-22T14:27:06.469Z,99746.07
2022-08-22T14:29:50.220Z,99746.98
2022-08-22T14:32:48.198Z,99745.59
2022-08-22T14:35:34.681Z,99746.34
2022-08-22T14:38:27.283Z,99746.71
2022-08-22T14:41:06.309Z,99749.13
2022-08-22T14:43:51.241Z,99746.66
2022-08-22T14:46:28.167Z,99747.03
2022-08-22T14:49:28.882Z,99750.96
2022-08-22T14:52:06.812Z,99748.77
2022-08-22T14:54:42.587Z,99750.29
2022-08-22T14:57:20.195Z,99750.29
2022-08-22T14:59:55.080Z,99748.95
2022-08-22T15:02:32.739Z,99747.12
2022-08-22T15:05:19.224Z,99742.82
2022-08-22T15:08:00.393Z,99746.43
2022-08-22T15:10:36.565Z,99745.27
2022-08-22T15:13:13.230Z,99742.77
2022-08-22T15:15:54.195Z,99740.17
2022-08-22T15:18:38.981Z,99738.94
2022-08-22T15:21:24.103Z,99742.27
2022-08-22T15:24:01.121Z,99743.76
2022-08-22T15:26:36.986Z,99743.67
2022-08-22T15:29:18.078Z,99750.58
2022-08-22T15:31:56.415Z,99749.09
2022-08-22T15:34:47.777Z,99751.80
2022-08-22T15:37:34.005Z,99745.86
2022-08-22T15:40:14.980Z,99744.85
2022-08-22T15:42:50.263Z,99738.38
2022-08-22T15:45:34.827Z,99738.63
2022-08-22T15:48:25.013Z,99742.66
2022-08-22T15:51:02.728Z,99741.95
2022-08-22T15:53:59.491Z,99738.27
2022-08-22T15:56:34.384Z,99738.23
2022-08-22T15:59:53.816Z,99735.90
2022-08-22T16:02:33.283Z,99739.70
2022-08-22T16:05:23.187Z,99737.75
2022-08-22T16:08:04.744Z,99734.52
2022-08-22T16:10:42.947Z,99731.61
2022-08-22T16:13:38.280Z,99727.37
2022-08-22T16:16:33.520Z,99734.73
2022-08-22T16:19:19.703Z,99732.82
2022-08-22T16:22:13.974Z,99738.13
2022-08-22T16:25:17.215Z,99746.38
2022-08-22T16:27:59.180Z,99748.95
2022-08-22T16:30:39.288Z,99750.17
2022-08-22T16:33:17.978Z,99753.02
2022-08-22T16:36:26.047Z,99756.23
2022-08-22T16:39:00.196Z,99755.52
2022-08-22T16:41:40.455Z,99754.21
2022-08-22T16:44:44.780Z,99755.27
2022-08-22T16:47:19.977Z,99754.59
2022-08-22T16:50:09.865Z,99752.75
2022-08-22T16:53:07.120Z,99753.67
2022-08-22T16:56:00.670Z,99750.52
2022-08-22T16:59:01.068Z,99748.54
2022-08-22T17:02:02.217Z,99750.55
2022-08-22T17:04:42.179Z,99753.21
2022-08-22T17:07:34.574Z,99755.23
2022-08-22T17:10:21.313Z,99758.85
2022-08-22T17:13:17.128Z,99755.63
2022-08-22T17:16:02.755Z,99759.98
2022-08-22T17:18:52.790Z,99763.70
2022-08-22T17:21:30.838Z,99771.94
2022-08-22T17:24:32.012Z,99774.41
2022-08-22T17:27:19.881Z,99778.06
2022-08-22T17:30:07.147Z,99788.71
2022-08-22T17:32:59.917Z,99794.09
2022-08-22T17:35:55.258Z,99796.34
2022-08-22T17:38:43.949Z,99794.97
2022-08-22T17:41:30.457Z,99794.91
2022-08-22T17:44:12.537Z,99802.91
2022-08-22T17:46:49.832Z,99801.36
2022-08-22T17:49:36.805Z,99802.67
2022-08-22T17:52:16.018Z,99802.95
2022-08-22T17:54:53.675Z,99804.91
2022-08-22T17:57:31.753Z,99804.70
2022-08-22T18:00:09.783Z,99808.92
2022-08-22T18:02:47.820Z,99814.98
2022-08-22T18:05:25.414Z,99818.11
2022-08-22T18:08:05.939Z,99823.40
2022-08-22T18:10:47.379Z,99825.37
2022-08-22T18:13:37.676Z,99830.80
2022-08-22T18:16:20.100Z,99831.38
2022-08-22T18:19:03.208Z,99833.59
2022-08-22T18:21:42.234Z,99834.81
2022-08-22T18:24:23.822Z,99835.15
2022-08-22T18:27:01.913Z,99840.02
2022-08-22T18:29:44.919Z,99843.72
2022-08-22T18:32:26.886Z,99846.70
2022-08-22T18:35:07.844Z,99851.55
2022-08-22T18:37:50.906Z,99850.95
2022-08-22T18:40:32.529Z,99852.61
2022-08-22T18:43:15.588Z,99850.04
2022-08-22T18:46:03.862Z,99845.73
2022-08-22T18:49:05.444Z,99846.61
2022-08-22T18:51:38.822Z,99847.45
2022-08-22T18:54:37.280Z,99845.16
2022-08-22T18:57:30.553Z,99845.13
2022-08-22T19:00:12.761Z,99843.63
2022-08-22T19:03:10.839Z,99847.78
2022-08-22T19:06:20.418Z,99849.98
2022-08-22T19:09:05.480Z,99848.10
2022-08-22T19:11:54.362Z,99846.62
2022-08-22T19:14:48.869Z,99842.27
2022-08-22T19:17:36.988Z,99836.98
2022-08-22T19:20:38.956Z,99834.40
2022-08-22T19:23:49.410Z,99827.86
2022-08-22T19:26:44.145Z,99837.33
2022-08-22T19:29:51.025Z,99845.45
2022-08-22T19:32:55.550Z,99842.27
2022-08-22T19:35:31.922Z,99836.66
2022-08-22T19:38:07.309Z,99833.52
2022-08-22T19:40:59.145Z,99831.36
2022-08-22T19:43:36.864Z,99835.63
2022-08-22T19:46:12.878Z,99835.29
2022-08-22T19:48:48.845Z,99835.98
2022-08-22T19:51:31.228Z,99834.27
2022-08-22T19:54:21.776Z,99832.61
2022-08-22T19:57:13.709Z,99841.58
2022-08-22T20:00:00.418Z,99845.91
2022-08-22T20:02:37.662Z,99851.66
2022-08-22T20:05:21.515Z,99853.53
2022-08-22T20:08:11.219Z,99854.09
2022-08-22T20:10:56.928Z,99851.89
2022-08-22T20:13:31.718Z,99851.34
2022-08-22T20:16:13.593Z,99850.88
2022-08-22T20:19:16.355Z,99850.33
2022-08-22T20:21:55.039Z,99852.18
2022-08-22T20:24:40.084Z,99845.45
2022-08-22T20:27:18.427Z,99844.29
2022-08-22T20:30:03.003Z,99846.13
2022-08-22T20:32:40.637Z,99841.97
2022-08-22T20:35:18.511Z,99836.98
2022-08-22T20:38:06.689Z,99835.05
2022-08-22T20:40:55.004Z,99832.29
2022-08-22T20:43:35.383Z,99837.89
2022-08-22T20:46:23.989Z,99842.52
2022-08-22T20:48:57.665Z,99840.33
2022-08-22T20:51:32.359Z,99841.09
2022-08-22T20:54:10.472Z,99841.43
2022-08-22T20:56:53.604Z,99842.95
2022-08-22T20:59:36.006Z,99846.98
2022-08-22T21:02:13.756Z,99844.60
2022-08-22T21:04:52.980Z,99842.25
2022-08-22T21:07:28.669Z,99848.86
2022-08-22T21:10:23.137Z,99846.46
2022-08-22T21:13:11.444Z,99845.67
2022-08-22T21:15:46.291Z,99844.50
2022-08-22T21:18:29.968Z,99839.60
2022-08-22T21:21:17.850Z,99829.80
2022-08-22T21:23:54.006Z,99829.16
2022-08-22T21:26:30.517Z,99831.73
2022-08-22T21:29:06.523Z,99834.80
2022-08-22T21:31:45.951Z,99839.84
2022-08-22T21:34:22.012Z,99834.55
2022-08-22T21:36:57.933Z,99829.59
2022-08-22T21:39:33.900Z,99831.69
2022-08-22T21:42:17.842Z,99831.63
2022-08-22T21:44:58.850Z,99829.61
2022-08-22T21:47:34.669Z,99828.95
2022-08-22T21:50:18.713Z,99832.14
2022-08-22T21:53:10.095Z,99832.60
2022-08-22T21:55:47.002Z,99828.38
2022-08-22T21:58:35.892Z,99829.31
2022-08-22T22:01:30.713Z,99829.45
2022-08-22T22:04:03.616Z,99832.50
2022-08-22T22:06:35.757Z,99830.06
2022-08-22T22:09:09.989Z,99826.63
2022-08-22T22:11:45.282Z,99823.35
2022-08-22T22:14:17.559Z,99818.11
2022-08-22T22:16:49.572Z,99816.69
2022-08-22T22:19:21.621Z,99817.20
2022-08-22T22:21:54.716Z,99811.77
2022-08-22T22:24:26.973Z,99809.83
2022-08-22T22:26:59.480Z,99803.31
2022-08-22T22:29:31.501Z,99800.44
2022-08-22T22:32:03.745Z,99796.98
2022-08-22T22:34:37.134Z,99790.86
2022-08-22T22:37:11.959Z,99792.95
2022-08-22T22:39:44.709Z,99789.15
2022-08-22T22:42:16.954Z,99787.47
2022-08-22T22:44:49.067Z,99786.40
2022-08-22T22:47:26.653Z,99782.04
2022-08-22T22:49:59.012Z,99782.83
2022-08-22T22:52:31.245Z,99784.13
2022-08-22T22:55:03.305Z,99787.80
2022-08-22T22:57:41.354Z,99786.95
2022-08-22T23:00:17.335Z,99793.59
2022-08-22T23:02:49.500Z,99796.87
2022-08-22T23:05:21.710Z,99799.48
2022-08-22T23:07:53.744Z,99803.80
2022-08-22T23:10:26.309Z,99806.09
2022-08-22T23:12:58.417Z,99808.77
2022-08-22T23:15:30.593Z,99803.44
2022-08-22T23:18:03.054Z,99803.14
2022-08-22T23:20:35.211Z,99802.14
2022-08-22T23:23:07.328Z,99801.61
2022-08-22T23:25:39.407Z,99802.75
2022-08-22T23:28:11.640Z,99802.52
2022-08-22T23:30:44.193Z,99808.19
2022-08-22T23:33:16.921Z,99805.42
2022-08-22T23:35:49.006Z,99805.88
2022-08-22T23:38:21.013Z,99807.96
2022-08-22T23:40:54.116Z,99803.73
2022-08-22T23:43:26.210Z,99797.48
2022-08-22T23:45:58.234Z,99797.89
2022-08-22T23:48:30.506Z,99790.59
2022-08-22T23:51:02.522Z,99785.88
2022-08-22T23:53:35.026Z,99797.48
2022-08-22T23:56:19.450Z,99809.38
2022-08-22T23:58:53.346Z,99812.10
